Time;durP1;ratioP1;P1;durP2;ratioP2;P2;SDS_P1;SDS_P2;PMS_P1;PMS_P2;Temp;Humidity;BMP_temperature;BMP_pressure;BME280_temperature;BME280_humidity;BME280_pressure;Samples;Min_cycle;Max_cycle;Signal;HPM_P1;HPM_P2
2023/03/02 00:01:20;;;;;;;10.27;7.00;;;1.40;1.00;;;;;;5095480;28;20411;-62
2023/03/02 00:03:47;;;;;;;11.40;7.53;;;1.40;1.00;;;;;;5099159;28;20834;-62
2023/03/02 00:06:14;;;;;;;10.10;7.47;;;1.30;1.00;;;;;;5100240;28;20413;-60
2023/03/02 00:08:41;;;;;;;12.83;7.63;;;1.30;1.00;;;;;;5101932;28;20412;-61
2023/03/02 00:11:08;;;;;;;12.37;7.70;;;1.20;1.00;;;;;;5100084;28;20510;-62
2023/03/02 00:13:37;;;;;;;9.45;6.75;;;1.00;33.10;;;;;;5099439;28;20414;-61
2023/03/02 00:16:04;;;;;;;11.77;7.68;;;1.00;65.00;;;;;;5096331;28;20877;-61
2023/03/02 00:18:31;;;;;;;10.88;7.57;;;0.90;80.50;;;;;;5099628;28;20479;-58
2023/03/02 00:20:58;;;;;;;10.07;7.38;;;0.90;97.50;;;;;;5102644;28;20753;-59
2023/03/02 00:23:24;;;;;;;10.13;7.60;;;0.80;99.90;;;;;;5100266;28;20914;-61
2023/03/02 00:25:51;;;;;;;12.60;7.47;;;0.80;99.90;;;;;;5101274;28;20932;-61
2023/03/02 00:28:18;;;;;;;10.13;7.50;;;0.80;99.90;;;;;;5099277;28;20406;-61
2023/03/02 00:30:46;;;;;;;9.88;7.18;;;0.70;99.90;;;;;;5099722;28;20414;-61
2023/03/02 00:33:13;;;;;;;11.73;7.05;;;0.80;99.90;;;;;;5102464;28;20408;-58
2023/03/02 00:35:39;;;;;;;10.15;7.53;;;1.00;99.90;;;;;;5100513;28;20416;-61
2023/03/02 00:38:07;;;;;;;12.50;8.00;;;0.90;99.90;;;;;;5100256;28;20475;-62
2023/03/02 00:40:34;;;;;;;11.00;7.50;;;1.10;93.40;;;;;;5104473;28;20415;-59
2023/03/02 00:43:00;;;;;;;11.80;7.80;;;1.10;50.70;;;;;;5104750;28;20415;-61
2023/03/02 00:45:27;;;;;;;11.50;7.83;;;1.20;29.20;;;;;;5102828;28;20811;-61
2023/03/02 00:47:55;;;;;;;11.27;7.50;;;1.10;1.00;;;;;;5103851;28;20404;-63
2023/03/02 00:50:22;;;;;;;13.13;7.60;;;1.10;1.00;;;;;;5102585;28;20772;-61
2023/03/02 00:52:49;;;;;;;10.23;7.53;;;0.80;66.50;;;;;;5103465;28;20410;-61
2023/03/02 00:55:16;;;;;;;12.70;8.10;;;0.70;99.90;;;;;;5104908;28;21062;-60
2023/03/02 00:57:42;;;;;;;11.00;7.30;;;0.60;99.90;;;;;;5105639;28;20408;-61
2023/03/02 01:00:11;;;;;;;11.52;7.78;;;0.60;99.90;;;;;;5103897;28;20465;-60
2023/03/02 01:02:42;;;;;;;10.95;7.90;;;0.70;99.90;;;;;;5102539;28;20417;-61
2023/03/02 01:05:10;;;;;;;12.30;7.88;;;0.70;99.90;;;;;;5103556;28;20788;-61
2023/03/02 01:07:37;;;;;;;11.23;7.25;;;0.80;99.90;;;;;;5104867;28;20540;-61
2023/03/02 01:10:04;;;;;;;11.70;8.10;;;0.90;99.90;;;;;;5103358;28;20417;-61
2023/03/02 01:12:31;;;;;;;10.90;8.02;;;0.80;99.90;;;;;;5102614;28;20412;-61
2023/03/02 01:14:59;;;;;;;11.30;7.85;;;0.70;99.90;;;;;;5104710;28;20409;-61
2023/03/02 01:17:26;;;;;;;10.50;7.77;;;0.50;99.90;;;;;;5104072;28;20453;-61
2023/03/02 01:19:53;;;;;;;12.00;8.00;;;0.50;99.90;;;;;;5102328;28;20478;-60
2023/03/02 01:22:21;;;;;;;10.40;7.70;;;0.30;99.90;;;;;;5103393;28;20452;-60
2023/03/02 01:24:48;;;;;;;11.15;7.57;;;0.30;99.90;;;;;;5102362;28;20414;-60
2023/03/02 01:27:15;;;;;;;9.98;7.40;;;0.30;99.90;;;;;;5104162;28;20408;-62
2023/03/02 01:29:42;;;;;;;11.37;8.07;;;0.40;99.90;;;;;;5105125;28;20490;-61
2023/03/02 01:32:09;;;;;;;11.13;8.30;;;0.20;1.00;;;;;;5098872;28;20401;-61
2023/03/02 01:34:35;;;;;;;10.70;7.90;;;0.20;1.00;;;;;;5103404;28;20465;-61
2023/03/02 01:37:02;;;;;;;12.35;8.30;;;0.20;1.00;;;;;;5107160;28;20410;-62
2023/03/02 01:39:30;;;;;;;12.27;8.02;;;0.20;39.70;;;;;;5107286;28;20409;-61
2023/03/02 01:41:57;;;;;;;13.00;8.48;;;0.20;95.50;;;;;;5104221;28;20412;-62
2023/03/02 01:44:39;;;;;;;11.80;7.97;;;0.10;99.90;;;;;;5098518;28;20463;-61
2023/03/02 01:47:12;;;;;;;12.27;8.32;;;0.20;99.90;;;;;;5092727;28;20887;-62
2023/03/02 01:49:43;;;;;;;12.85;8.40;;;0.20;99.90;;;;;;5100375;28;20423;-61
2023/03/02 01:52:11;;;;;;;13.93;8.77;;;0.30;99.90;;;;;;5100656;28;20946;-61
2023/03/02 01:54:40;;;;;;;13.57;8.80;;;0.20;99.90;;;;;;5101674;28;20441;-61
2023/03/02 01:57:08;;;;;;;13.07;8.40;;;0.10;99.90;;;;;;5098895;28;20410;-61
2023/03/02 01:59:37;;;;;;;13.55;9.13;;;0.00;1.00;;;;;;5101633;28;20748;-62
2023/03/02 02:02:08;;;;;;;13.27;8.98;;;-0.10;97.10;;;;;;5097611;28;20507;-61
2023/03/02 02:04:38;;;;;;;12.45;8.73;;;-0.20;99.90;;;;;;5101519;28;20444;-61
2023/03/02 02:07:07;;;;;;;14.18;9.10;;;-0.10;1.00;;;;;;5098276;28;20458;-62
2023/03/02 02:09:38;;;;;;;12.57;8.75;;;-0.10;1.00;;;;;;5101843;27;20406;-61
2023/03/02 02:12:11;;;;;;;12.43;8.65;;;-0.20;1.00;;;;;;5098686;28;20406;-62
2023/03/02 02:14:38;;;;;;;16.77;9.40;;;-0.20;84.80;;;;;;5106134;28;20462;-59
2023/03/02 02:17:05;;;;;;;13.60;8.68;;;-0.30;99.90;;;;;;5104107;28;20436;-61
2023/03/02 02:19:47;;;;;;;13.15;8.50;;;-0.30;99.90;;;;;;5104246;28;20409;-62
2023/03/02 02:22:21;;;;;;;13.30;8.40;;;-0.30;1.00;;;;;;5102067;28;20404;-61
2023/03/02 02:24:53;;;;;;;14.13;8.93;;;-0.30;1.00;;;;;;5099764;28;20504;-61
2023/03/02 02:27:32;;;;;;;14.70;8.80;;;-0.20;1.00;;;;;;5101013;28;20777;-61
2023/03/02 02:30:01;;;;;;;12.95;8.75;;;-0.40;1.00;;;;;;5101082;28;20414;-61
2023/03/02 02:32:31;;;;;;;13.27;8.82;;;-0.40;99.90;;;;;;5097844;28;20402;-61
2023/03/02 02:35:02;;;;;;;13.48;8.48;;;-0.50;1.00;;;;;;5100808;28;20845;-62
2023/03/02 02:37:33;;;;;;;12.70;8.55;;;-0.40;1.00;;;;;;5098408;28;20402;-61
2023/03/02 02:40:06;;;;;;;12.32;8.15;;;-0.30;1.00;;;;;;5100921;28;20410;-61
2023/03/02 02:42:38;;;;;;;15.55;8.95;;;-0.50;1.00;;;;;;5104514;28;20769;-61
2023/03/02 02:45:07;;;;;;;13.23;8.30;;;-0.60;99.90;;;;;;5100667;28;20799;-63
2023/03/02 02:47:34;;;;;;;14.90;9.02;;;-0.60;99.90;;;;;;5101240;28;20819;-61
2023/03/02 02:50:01;;;;;;;14.17;9.03;;;-0.70;1.00;;;;;;5103222;28;20449;-61
2023/03/02 02:52:29;;;;;;;13.30;9.00;;;-0.60;72.90;;;;;;5101732;28;20408;-61
2023/03/02 02:54:57;;;;;;;14.27;9.17;;;-0.70;99.90;;;;;;5102632;28;20424;-61
2023/03/02 02:57:28;;;;;;;13.03;8.67;;;-0.60;91.10;;;;;;5101016;28;20414;-61
2023/03/02 02:59:59;;;;;;;14.35;9.27;;;-0.60;1.00;;;;;;5099709;28;20501;-61
2023/03/02 03:02:29;;;;;;;13.68;8.90;;;-0.60;1.00;;;;;;5101299;28;20883;-61
2023/03/02 03:05:01;;;;;;;13.63;9.20;;;-0.70;1.00;;;;;;5102753;28;20440;-62
2023/03/02 03:07:29;;;;;;;14.40;9.27;;;-0.70;1.00;;;;;;5101461;28;20439;-62
2023/03/02 03:10:01;;;;;;;13.43;9.33;;;-0.70;8.40;;;;;;5099939;28;20406;-61
2023/03/02 03:12:31;;;;;;;13.55;9.18;;;-0.70;72.70;;;;;;5101198;28;20404;-62
2023/03/02 03:15:01;;;;;;;13.80;8.93;;;-0.70;99.90;;;;;;5102795;28;20416;-61
2023/03/02 03:17:28;;;;;;;14.95;9.73;;;-0.70;99.90;;;;;;5101484;28;20420;-61
2023/03/02 03:20:05;;;;;;;13.35;9.02;;;-0.70;99.90;;;;;;5099927;28;20410;-61
2023/03/02 03:22:33;;;;;;;14.48;9.10;;;-0.60;99.90;;;;;;5099534;28;20414;-62
2023/03/02 03:25:00;;;;;;;11.32;8.73;;;-0.70;99.90;;;;;;5099864;28;20413;-61
2023/03/02 03:27:26;;;;;;;12.87;8.97;;;-0.70;1.00;;;;;;5100387;28;20435;-62
2023/03/02 03:29:53;;;;;;;14.85;9.20;;;-0.80;59.80;;;;;;5098535;28;20410;-61
2023/03/02 03:32:22;;;;;;;13.43;8.60;;;-0.80;99.90;;;;;;5101359;28;20411;-62
2023/03/02 03:34:48;;;;;;;16.20;8.93;;;-0.70;99.90;;;;;;5102197;28;20944;-61
2023/03/02 03:37:18;;;;;;;14.25;8.70;;;-0.70;39.70;;;;;;5101050;28;20799;-61
2023/03/02 03:39:45;;;;;;;13.50;8.80;;;-0.80;64.40;;;;;;5099700;28;20762;-61
2023/03/02 03:42:11;;;;;;;12.07;8.80;;;-0.70;9.90;;;;;;5102188;28;20918;-61
2023/03/02 03:44:38;;;;;;;14.52;8.25;;;-0.80;96.40;;;;;;5102450;28;20469;-60
2023/03/02 03:47:05;;;;;;;14.77;8.23;;;-0.80;52.20;;;;;;5102035;28;20439;-61
2023/03/02 03:49:33;;;;;;;13.98;8.90;;;-0.80;27.80;;;;;;5102305;28;20461;-61
2023/03/02 03:52:00;;;;;;;12.70;8.87;;;-0.70;1.00;;;;;;5099881;28;20471;-61
2023/03/02 03:54:26;;;;;;;13.40;9.18;;;-0.70;99.90;;;;;;5095548;28;20400;-61
2023/03/02 03:56:53;;;;;;;12.77;8.57;;;-0.60;99.90;;;;;;5100977;28;20431;-61
2023/03/02 03:59:22;;;;;;;14.10;8.73;;;-0.70;99.90;;;;;;5100234;28;20409;-61
2023/03/02 04:01:51;;;;;;;13.27;8.90;;;-0.70;99.90;;;;;;5101096;28;20805;-61
2023/03/02 04:04:20;;;;;;;13.68;8.73;;;-0.80;99.90;;;;;;5102160;28;20540;-60
2023/03/02 04:06:49;;;;;;;14.63;8.70;;;-0.90;1.00;;;;;;5100172;28;20465;-61
2023/03/02 04:09:17;;;;;;;14.05;8.45;;;-0.90;1.00;;;;;;5098938;28;20454;-61
2023/03/02 04:11:46;;;;;;;13.68;8.98;;;-0.90;1.00;;;;;;5101186;28;20491;-60
2023/03/02 04:14:14;;;;;;;13.23;8.38;;;-0.80;1.00;;;;;;5105525;28;20459;-60
2023/03/02 04:16:42;;;;;;;13.15;8.27;;;-0.90;1.00;;;;;;5100233;28;20819;-61
2023/03/02 04:19:10;;;;;;;13.52;8.77;;;-0.90;1.00;;;;;;5103712;28;20484;-61
2023/03/02 04:21:38;;;;;;;12.63;8.13;;;-0.80;1.00;;;;;;5105442;28;20902;-61
2023/03/02 04:24:06;;;;;;;12.13;8.25;;;-0.80;99.90;;;;;;5103181;28;20485;-61
2023/03/02 04:26:34;;;;;;;12.13;8.27;;;-0.80;99.90;;;;;;5103047;28;20406;-61
2023/03/02 04:29:00;;;;;;;13.80;9.07;;;-0.80;99.90;;;;;;5104905;28;20806;-60
2023/03/02 04:31:27;;;;;;;13.80;8.85;;;-0.80;99.90;;;;;;5105960;28;20403;-61
2023/03/02 04:33:54;;;;;;;15.13;8.60;;;-0.70;99.90;;;;;;5102055;28;20421;-61
2023/03/02 04:36:20;;;;;;;14.68;8.13;;;-0.80;99.90;;;;;;5104589;28;20408;-61
2023/03/02 04:38:47;;;;;;;11.55;7.80;;;-0.80;99.90;;;;;;5103003;28;20463;-63
2023/03/02 04:41:16;;;;;;;11.77;7.68;;;-0.80;99.90;;;;;;5104490;28;20404;-61
2023/03/02 04:43:43;;;;;;;11.45;7.57;;;-0.60;81.70;;;;;;5106631;28;20416;-61
2023/03/02 04:46:14;;;;;;;12.27;7.85;;;-0.80;1.00;;;;;;5109458;28;20702;-61
2023/03/02 04:48:40;;;;;;;12.05;8.07;;;-0.80;99.90;;;;;;5112507;28;20863;-64
2023/03/02 04:51:08;;;;;;;11.30;8.30;;;-0.80;6.70;;;;;;5103295;28;20861;-61
2023/03/02 04:53:35;;;;;;;13.70;7.77;;;-0.80;77.30;;;;;;5106544;28;20407;-61
2023/03/02 04:56:02;;;;;;;15.10;8.18;;;-0.80;1.00;;;;;;5102734;28;20405;-61
2023/03/02 04:58:30;;;;;;;11.55;7.88;;;-0.90;85.90;;;;;;5104231;28;20461;-61
2023/03/02 05:01:00;;;;;;;12.52;8.00;;;-0.90;1.00;;;;;;5104901;28;20465;-61
2023/03/02 05:03:27;;;;;;;12.02;7.78;;;-0.80;1.00;;;;;;5103734;28;20432;-61
2023/03/02 05:05:54;;;;;;;12.45;7.65;;;-0.90;1.00;;;;;;5102692;28;20406;-61
2023/03/02 05:08:21;;;;;;;11.30;7.43;;;-0.90;1.00;;;;;;5104715;28;20513;-58
2023/03/02 05:10:47;;;;;;;11.80;7.63;;;-0.90;1.00;;;;;;5104357;28;20412;-58
2023/03/02 05:13:14;;;;;;;12.20;8.15;;;-0.90;1.00;;;;;;5102387;28;20520;-60
2023/03/02 05:15:42;;;;;;;11.80;7.57;;;-0.90;1.00;;;;;;5103654;28;20408;-60
2023/03/02 05:18:11;;;;;;;11.68;7.63;;;-0.90;1.00;;;;;;5104645;28;20495;-60
2023/03/02 05:20:38;;;;;;;10.00;7.35;;;-0.90;1.00;;;;;;5104330;28;20412;-59
2023/03/02 05:23:07;;;;;;;13.00;8.10;;;-1.00;1.00;;;;;;5102221;28;20960;-59
2023/03/02 05:25:36;;;;;;;13.15;8.20;;;-1.00;33.70;;;;;;5099115;28;20402;-58
2023/03/02 05:28:03;;;;;;;13.27;8.23;;;-1.00;99.90;;;;;;5101197;28;20900;-64
2023/03/02 05:30:36;;;;;;;13.23;8.82;;;-1.10;99.90;;;;;;5104625;28;20416;-62
2023/03/02 05:33:04;;;;;;;12.23;8.25;;;-1.10;99.90;;;;;;5102893;28;20418;-62
2023/03/02 05:35:31;;;;;;;12.33;8.20;;;-1.10;99.90;;;;;;5101206;28;20464;-62
2023/03/02 05:37:57;;;;;;;12.13;8.25;;;-1.10;1.00;;;;;;5100884;28;20402;-62
2023/03/02 05:40:24;;;;;;;13.85;8.65;;;-1.20;3.80;;;;;;5104464;28;20957;-62
2023/03/02 05:42:51;;;;;;;12.93;8.68;;;-1.20;99.90;;;;;;5108080;28;20416;-62
2023/03/02 05:45:21;;;;;;;15.27;8.50;;;-1.10;1.00;;;;;;5104663;28;20489;-62
2023/03/02 05:47:48;;;;;;;13.15;8.10;;;-0.90;1.00;;;;;;5099357;28;20920;-62
2023/03/02 05:50:16;;;;;;;14.15;7.95;;;-1.00;99.90;;;;;;5102121;28;20814;-63
2023/03/02 05:52:45;;;;;;;12.32;8.45;;;-0.80;99.90;;;;;;5096437;28;20403;-63
2023/03/02 05:55:12;;;;;;;12.88;9.02;;;-0.90;1.00;;;;;;5101496;28;20878;-62
2023/03/02 05:57:39;;;;;;;11.45;8.02;;;-0.90;35.00;;;;;;5100817;28;20427;-63
2023/03/02 06:00:08;;;;;;;13.45;8.07;;;-1.00;16.20;;;;;;5107437;28;20423;-65
2023/03/02 06:02:38;;;;;;;12.27;8.05;;;-1.00;1.00;;;;;;5100161;28;20414;-65
2023/03/02 06:05:05;;;;;;;13.95;8.20;;;-1.00;1.00;;;;;;5099629;28;20432;-65
2023/03/02 06:07:33;;;;;;;13.95;8.50;;;-1.00;1.00;;;;;;5105116;28;20914;-63
2023/03/02 06:10:00;;;;;;;12.18;8.48;;;-0.90;1.00;;;;;;5102677;28;20408;-65
2023/03/02 06:12:27;;;;;;;15.43;8.95;;;-1.10;1.00;;;;;;5103327;28;20887;-65
2023/03/02 06:14:54;;;;;;;13.13;8.13;;;-1.10;1.00;;;;;;5111353;28;20793;-63
2023/03/02 06:17:20;;;;;;;12.32;8.65;;;-1.10;1.00;;;;;;5098244;28;20896;-65
2023/03/02 06:19:47;;;;;;;14.63;8.23;;;-1.10;99.90;;;;;;5102372;28;20817;-64
2023/03/02 06:22:14;;;;;;;12.48;8.30;;;-1.10;99.90;;;;;;5100645;28;20483;-64
2023/03/02 06:24:42;;;;;;;11.80;7.80;;;-1.10;99.90;;;;;;5103066;28;20779;-64
2023/03/02 06:27:08;;;;;;;12.32;8.27;;;-1.20;99.90;;;;;;5089092;28;20757;-64
2023/03/02 06:29:35;;;;;;;12.32;7.88;;;-1.20;99.90;;;;;;5100613;28;20492;-63
2023/03/02 06:32:02;;;;;;;12.68;8.18;;;-1.10;99.90;;;;;;5100933;28;20410;-63
2023/03/02 06:34:29;;;;;;;12.88;7.75;;;-1.10;99.90;;;;;;5100323;28;20404;-63
2023/03/02 06:36:56;;;;;;;14.35;8.05;;;-1.10;99.90;;;;;;5099698;28;20410;-64
2023/03/02 06:39:23;;;;;;;14.10;8.40;;;-1.10;1.00;;;;;;5102886;28;20428;-64
2023/03/02 06:41:51;;;;;;;46.97;40.85;;;-1.10;1.00;;;;;;5100275;28;20481;-59
2023/03/02 06:44:18;;;;;;;14.85;8.70;;;-1.00;26.30;;;;;;5101901;28;21018;-64
2023/03/02 06:46:45;;;;;;;14.20;8.38;;;-1.00;43.90;;;;;;5086856;28;20444;-63
2023/03/02 06:49:12;;;;;;;14.90;8.30;;;-0.90;99.90;;;;;;5098634;28;20404;-63
2023/03/02 06:51:39;;;;;;;13.13;8.57;;;-0.90;1.00;;;;;;5097930;28;20446;-62
2023/03/02 06:54:07;;;;;;;13.93;7.97;;;-0.80;99.90;;;;;;5101608;28;20461;-62
2023/03/02 06:56:34;;;;;;;13.00;7.60;;;-0.70;99.90;;;;;;5098795;28;20519;-63
2023/03/02 06:59:02;;;;;;;12.43;7.80;;;-0.70;53.50;;;;;;5099775;28;20421;-63
2023/03/02 07:01:31;;;;;;;14.60;6.95;;;-0.70;1.00;;;;;;5099420;28;20412;-64
2023/03/02 07:03:58;;;;;;;14.18;7.55;;;-0.60;1.00;;;;;;5100214;28;20444;-62
2023/03/02 07:06:25;;;;;;;15.52;6.80;;;-0.60;1.00;;;;;;5099687;28;20900;-62
2023/03/02 07:08:51;;;;;;;16.47;8.00;;;-0.50;1.00;;;;;;5101424;28;20485;-61
2023/03/02 07:11:18;;;;;;;13.90;7.82;;;-0.50;1.00;;;;;;5102209;28;20406;-61
2023/03/02 07:13:45;;;;;;;14.77;8.00;;;-0.50;99.90;;;;;;5098006;28;20415;-61
2023/03/02 07:16:14;;;;;;;15.15;7.45;;;-0.40;1.00;;;;;;5101742;28;20412;-61
2023/03/02 07:18:41;;;;;;;15.68;8.27;;;-0.50;1.00;;;;;;5101652;28;20419;-61
2023/03/02 07:21:08;;;;;;;11.00;7.45;;;-0.40;99.90;;;;;;5097962;28;20414;-63
2023/03/02 07:23:35;;;;;;;11.02;7.72;;;-0.40;99.90;;;;;;5100018;28;20405;-63
2023/03/02 07:26:04;;;;;;;11.40;7.55;;;-0.30;99.90;;;;;;5101165;28;20958;-62
2023/03/02 07:28:30;;;;;;;13.02;8.30;;;-0.30;1.00;;;;;;5100659;28;20424;-62
2023/03/02 07:30:57;;;;;;;12.80;8.10;;;-0.20;1.00;;;;;;5099060;28;20418;-62
2023/03/02 07:33:25;;;;;;;11.38;7.35;;;-0.20;1.00;;;;;;5100982;28;20404;-62
2023/03/02 07:35:52;;;;;;;13.32;7.97;;;0.00;1.00;;;;;;5102116;28;20465;-62
2023/03/02 07:38:18;;;;;;;11.70;7.72;;;0.00;99.90;;;;;;5095628;28;20883;-62
2023/03/02 07:40:45;;;;;;;12.45;8.20;;;0.00;99.90;;;;;;5100594;28;20871;-62
2023/03/02 07:43:12;;;;;;;12.43;7.57;;;0.20;99.90;;;;;;5101537;28;21022;-62
2023/03/02 07:45:38;;;;;;;14.20;8.20;;;0.30;1.00;;;;;;5100232;28;20430;-61
2023/03/02 07:48:06;;;;;;;12.27;8.02;;;0.30;1.00;;;;;;5098345;28;20493;-62
2023/03/02 07:50:34;;;;;;;13.98;7.90;;;0.30;1.00;;;;;;5091347;28;20445;-60
2023/03/02 07:53:00;;;;;;;14.10;7.90;;;0.40;99.90;;;;;;5100685;28;20459;-62
2023/03/02 07:55:27;;;;;;;12.23;8.23;;;0.50;99.90;;;;;;5101887;28;20412;-62
2023/03/02 07:57:54;;;;;;;14.30;8.20;;;0.50;1.00;;;;;;5098048;28;20505;-61
2023/03/02 08:00:22;;;;;;;13.48;8.77;;;0.60;99.90;;;;;;5108561;28;20411;-62
2023/03/02 08:02:48;;;;;;;13.23;8.85;;;0.70;32.60;;;;;;5114334;28;20451;-63
2023/03/02 08:05:15;;;;;;;13.77;7.80;;;0.80;1.00;;;;;;5105206;28;20432;-63
2023/03/02 08:07:45;;;;;;;11.40;8.30;;;0.80;49.30;;;;;;5084297;28;20419;-63
2023/03/02 08:10:12;;;;;;;13.35;8.57;;;0.90;99.90;;;;;;5097385;28;20414;-63
2023/03/02 08:12:39;;;;;;;12.85;7.82;;;0.90;1.00;;;;;;5102935;28;20414;-64
2023/03/02 08:15:06;;;;;;;13.68;8.63;;;1.10;1.00;;;;;;5101142;28;20430;-63
2023/03/02 08:18:01;;;;;;;13.82;8.25;;;1.20;99.90;;;;;;5101677;28;20910;-63
2023/03/02 08:20:28;;;;;;;13.23;8.13;;;1.10;99.90;;;;;;5095035;28;20414;-63
2023/03/02 08:22:56;;;;;;;12.18;8.75;;;1.30;99.90;;;;;;5098546;28;20775;-63
2023/03/02 08:25:23;;;;;;;14.23;8.00;;;1.40;99.90;;;;;;5101058;28;20426;-63
2023/03/02 08:27:49;;;;;;;10.18;7.93;;;1.60;92.10;;;;;;5093556;28;20797;-65
2023/03/02 08:30:16;;;;;;;10.70;7.80;;;1.60;19.20;;;;;;5092682;28;20444;-65
2023/03/02 08:32:43;;;;;;;13.35;8.25;;;1.60;1.00;;;;;;5101567;28;20473;-65
2023/03/02 08:35:11;;;;;;;11.60;7.80;;;1.70;1.00;;;;;;5100487;28;20419;-66
2023/03/02 08:37:38;;;;;;;11.60;7.78;;;1.80;1.00;;;;;;5097690;28;20410;-66
2023/03/02 08:40:08;;;;;;;10.53;7.57;;;2.00;1.00;;;;;;5099194;28;20947;-68
2023/03/02 08:42:34;;;;;;;11.23;7.85;;;1.90;1.00;;;;;;5100766;28;20480;-64
2023/03/02 08:45:01;;;;;;;11.35;7.35;;;2.10;1.00;;;;;;5099553;28;20482;-65
2023/03/02 08:47:27;;;;;;;12.38;7.65;;;2.10;1.00;;;;;;5097911;28;20479;-63
2023/03/02 08:49:54;;;;;;;10.77;7.35;;;2.30;1.00;;;;;;5094974;28;20491;-62
2023/03/02 08:52:21;;;;;;;15.15;13.57;;;2.60;1.00;;;;;;5092195;28;20488;-61
2023/03/02 08:54:48;;;;;;;10.85;7.50;;;2.70;99.90;;;;;;5095530;28;20781;-64
2023/03/02 08:57:16;;;;;;;17.45;15.38;;;2.70;99.90;;;;;;5098897;28;20410;-60
2023/03/02 08:59:43;;;;;;;11.20;7.00;;;2.70;99.90;;;;;;5100273;28;20467;-63
2023/03/02 09:02:11;;;;;;;12.98;8.40;;;2.80;99.90;;;;;;5104504;28;20765;-64
2023/03/02 09:04:37;;;;;;;8.70;6.35;;;2.80;99.90;;;;;;5103618;28;20412;-61
2023/03/02 09:07:04;;;;;;;10.43;7.17;;;2.80;99.90;;;;;;5101587;28;21091;-62
2023/03/02 09:09:31;;;;;;;10.80;7.38;;;2.90;99.90;;;;;;5102783;28;20793;-62
2023/03/02 09:11:57;;;;;;;10.27;7.22;;;2.90;99.90;;;;;;5100612;28;20412;-63
2023/03/02 09:14:26;;;;;;;10.27;6.95;;;3.00;99.90;;;;;;5100826;28;20622;-61
2023/03/02 09:16:53;;;;;;;10.55;7.80;;;3.10;99.90;;;;;;5103951;28;20422;-64
2023/03/02 09:19:20;;;;;;;10.00;6.93;;;3.20;99.90;;;;;;5105341;28;20867;-63
2023/03/02 09:21:46;;;;;;;11.73;6.55;;;3.10;99.90;;;;;;5103100;28;20425;-63
2023/03/02 09:24:13;;;;;;;11.65;7.00;;;3.20;99.90;;;;;;5102994;28;20821;-64
2023/03/02 09:26:40;;;;;;;10.73;7.38;;;3.20;99.90;;;;;;5103908;28;20433;-64
2023/03/02 09:29:07;;;;;;;10.75;6.60;;;3.40;99.90;;;;;;5099340;28;20417;-65
2023/03/02 09:31:36;;;;;;;11.07;7.10;;;3.50;99.90;;;;;;5093770;28;20437;-64
2023/03/02 09:34:03;;;;;;;10.38;6.93;;;3.60;99.90;;;;;;5102130;28;20775;-65
2023/03/02 09:36:31;;;;;;;9.45;6.75;;;3.80;99.90;;;;;;5101830;28;20461;-64
2023/03/02 09:38:58;;;;;;;9.05;5.90;;;3.90;99.90;;;;;;5109598;28;20511;-64
2023/03/02 09:42:03;;;;;;;9.20;6.78;;;3.80;99.90;;;;;;5105616;28;20416;-64
2023/03/02 09:44:42;;;;;;;9.57;6.07;;;4.00;99.90;;;;;;5101008;28;20415;-62
2023/03/02 09:47:18;;;;;;;9.32;6.10;;;4.10;99.90;;;;;;5104121;28;20408;-64
2023/03/02 09:49:54;;;;;;;10.00;6.50;;;4.20;99.90;;;;;;5105172;28;20440;-65
2023/03/02 09:52:30;;;;;;;11.07;6.65;;;4.10;99.90;;;;;;5090658;28;20416;-66
2023/03/02 09:54:59;;;;;;;10.27;6.53;;;4.10;99.90;;;;;;5104294;28;20408;-65
2023/03/02 09:57:31;;;;;;;9.25;6.05;;;4.40;99.90;;;;;;5103310;28;20411;-65
2023/03/02 10:00:03;;;;;;;10.32;6.57;;;4.50;99.90;;;;;;5103163;28;20485;-64
2023/03/02 10:02:36;;;;;;;10.98;6.28;;;4.50;99.90;;;;;;5099429;28;20481;-65
2023/03/02 10:05:12;;;;;;;10.52;6.30;;;4.60;99.90;;;;;;5104747;28;20502;-65
2023/03/02 10:07:39;;;;;;;10.63;6.20;;;4.60;99.90;;;;;;5097771;28;20410;-65
2023/03/02 10:10:21;;;;;;;9.07;6.72;;;4.70;99.90;;;;;;5097037;28;20412;-64
2023/03/02 10:12:59;;;;;;;9.27;6.65;;;4.90;99.90;;;;;;5101727;28;20428;-65
2023/03/02 10:15:35;;;;;;;10.35;6.80;;;5.10;99.90;;;;;;5101204;28;20413;-65
2023/03/02 10:18:16;;;;;;;9.03;6.60;;;5.30;99.90;;;;;;5100997;28;20475;-65
2023/03/02 10:20:50;;;;;;;9.88;6.97;;;5.30;99.90;;;;;;5099766;28;20817;-66
2023/03/02 10:23:30;;;;;;;9.13;6.47;;;5.40;99.90;;;;;;5100400;28;20823;-65
2023/03/02 10:26:05;;;;;;;9.32;5.75;;;5.40;99.90;;;;;;5098869;28;21027;-66
2023/03/02 10:28:37;;;;;;;11.82;7.25;;;5.30;99.90;;;;;;5100849;28;20412;-66
2023/03/02 10:31:08;;;;;;;11.02;6.88;;;5.20;99.90;;;;;;5100894;28;20420;-65
2023/03/02 10:33:39;;;;;;;9.10;6.32;;;5.50;99.90;;;;;;5099709;28;20421;-65
2023/03/02 10:36:17;;;;;;;11.32;7.53;;;5.70;99.90;;;;;;5100990;28;20422;-65
2023/03/02 10:38:45;;;;;;;9.32;6.90;;;5.80;99.90;;;;;;5097252;28;20410;-66
2023/03/02 10:41:20;;;;;;;10.43;7.30;;;6.00;99.90;;;;;;5097443;28;20424;-65
2023/03/02 10:43:51;;;;;;;13.00;7.10;;;6.00;99.90;;;;;;5096435;28;20449;-63
2023/03/02 10:46:17;;;;;;;10.90;7.15;;;6.10;99.90;;;;;;5101856;28;20473;-65
2023/03/02 10:48:50;;;;;;;12.32;6.85;;;6.00;99.90;;;;;;5099056;28;20773;-64
2023/03/02 10:51:28;;;;;;;17.40;10.57;;;6.00;99.90;;;;;;5102552;28;20412;-65
2023/03/02 10:54:06;;;;;;;10.77;6.60;;;6.10;99.90;;;;;;5098686;28;20414;-66
2023/03/02 10:56:33;;;;;;;10.52;6.03;;;6.10;99.90;;;;;;5099623;28;20459;-64
2023/03/02 10:59:02;;;;;;;13.10;7.10;;;6.10;99.90;;;;;;5101863;28;20404;-64
2023/03/02 11:01:30;;;;;;;10.50;6.90;;;6.20;99.90;;;;;;5100792;28;20511;-66
2023/03/02 11:04:00;;;;;;;9.43;6.65;;;6.30;99.90;;;;;;5099470;28;20418;-66
2023/03/02 11:06:27;;;;;;;11.82;7.50;;;6.40;99.90;;;;;;5100385;28;20481;-65
2023/03/02 11:09:01;;;;;;;9.85;6.32;;;6.50;99.90;;;;;;5099913;28;21251;-65
2023/03/02 11:11:28;;;;;;;10.68;6.85;;;6.60;99.90;;;;;;5099758;28;20900;-63
2023/03/02 11:13:56;;;;;;;8.13;5.80;;;6.70;99.90;;;;;;5102596;28;20410;-64
2023/03/02 11:16:27;;;;;;;10.23;6.32;;;6.70;99.90;;;;;;5099467;28;20485;-63
2023/03/02 11:18:57;;;;;;;8.73;6.20;;;6.70;99.90;;;;;;5099348;28;20430;-63
2023/03/02 11:21:34;;;;;;;8.80;5.20;;;6.90;99.90;;;;;;5109001;28;20441;-65
2023/03/02 11:24:07;;;;;;;7.45;5.78;;;7.00;99.90;;;;;;5114681;28;20481;-65
2023/03/02 11:26:37;;;;;;;6.82;5.30;;;7.20;99.90;;;;;;5107105;28;20422;-65
2023/03/02 11:29:11;;;;;;;8.02;5.35;;;7.10;99.90;;;;;;5096166;27;20446;-63
2023/03/02 11:31:47;;;;;;;7.15;5.65;;;7.00;99.90;;;;;;5100955;28;20441;-62
2023/03/02 11:34:27;;;;;;;6.78;4.47;;;7.00;99.90;;;;;;5101276;28;20416;-63
2023/03/02 11:37:14;;;;;;;9.07;5.90;;;7.00;99.90;;;;;;5099519;28;20395;-64
2023/03/02 11:39:59;;;;;;;8.32;5.57;;;7.30;99.90;;;;;;5099947;28;20404;-67
2023/03/02 11:42:30;;;;;;;10.60;6.43;;;7.50;99.90;;;;;;5101409;28;20415;-64
2023/03/02 11:44:58;;;;;;;9.85;5.90;;;7.30;99.90;;;;;;5099701;28;20983;-63
2023/03/02 11:47:25;;;;;;;9.98;6.43;;;7.30;99.90;;;;;;5098192;28;20426;-62
2023/03/02 11:49:54;;;;;;;8.63;6.65;;;7.50;99.90;;;;;;5098270;28;20410;-63
2023/03/02 11:52:25;;;;;;;9.50;6.40;;;7.80;99.90;;;;;;5095449;28;20924;-64
2023/03/02 11:54:56;;;;;;;11.15;6.15;;;7.70;99.90;;;;;;5100126;28;20410;-63
2023/03/02 11:57:27;;;;;;;7.70;4.97;;;7.60;99.90;;;;;;5098493;28;20410;-64
2023/03/02 11:59:57;;;;;;;7.10;5.13;;;7.80;99.90;;;;;;5100291;28;20461;-63
2023/03/02 12:02:24;;;;;;;7.05;5.30;;;7.70;99.90;;;;;;5101306;28;20989;-63
2023/03/02 12:05:02;;;;;;;6.85;5.50;;;7.80;99.90;;;;;;5100766;28;20426;-63
2023/03/02 12:07:30;;;;;;;7.72;5.47;;;7.80;99.90;;;;;;5095165;28;20433;-63
2023/03/02 12:10:00;;;;;;;6.43;4.65;;;7.70;99.90;;;;;;5098826;28;20413;-64
2023/03/02 12:12:40;;;;;;;8.55;5.97;;;7.70;99.90;;;;;;5099541;28;20409;-64
2023/03/02 12:15:36;;;;;;;7.80;4.85;;;7.80;99.90;;;;;;5097840;28;20488;-63
2023/03/02 12:18:03;;;;;;;9.45;4.82;;;7.90;99.90;;;;;;5100185;28;20458;-63
2023/03/02 12:20:30;;;;;;;7.95;5.53;;;7.80;99.90;;;;;;5101430;28;20481;-63
2023/03/02 12:23:09;;;;;;;10.93;5.88;;;7.90;99.90;;;;;;5099056;28;20463;-63
2023/03/02 12:25:40;;;;;;;8.23;4.95;;;7.90;99.90;;;;;;5094850;28;20819;-64
2023/03/02 12:28:26;;;;;;;8.93;5.78;;;8.00;99.90;;;;;;5098308;28;20774;-62
2023/03/02 12:31:02;;;;;;;7.72;5.20;;;7.80;99.90;;;;;;5098052;28;20412;-64
2023/03/02 12:33:29;;;;;;;8.38;5.22;;;7.70;99.90;;;;;;5100240;28;20445;-63
2023/03/02 12:36:04;;;;;;;8.68;5.60;;;7.80;99.90;;;;;;5104374;28;20805;-64
2023/03/02 12:38:35;;;;;;;9.32;7.15;;;7.80;99.90;;;;;;5104506;28;20411;-64
2023/03/02 12:41:25;;;;;;;7.28;5.15;;;7.90;99.90;;;;;;5106884;28;20411;-65
2023/03/02 12:44:05;;;;;;;9.50;5.70;;;8.10;99.90;;;;;;5108139;28;20457;-65
2023/03/02 12:46:33;;;;;;;9.10;5.72;;;8.40;99.90;;;;;;5107103;28;20481;-65
2023/03/02 12:49:13;;;;;;;8.82;4.90;;;8.40;99.90;;;;;;5105236;28;20463;-67
2023/03/02 12:51:50;;;;;;;9.23;5.72;;;8.50;99.90;;;;;;5102855;28;20936;-69
2023/03/02 12:54:21;;;;;;;7.55;5.45;;;8.50;99.90;;;;;;5101403;28;20436;-67
2023/03/02 12:56:48;;;;;;;8.48;5.03;;;8.70;99.90;;;;;;5101699;28;20813;-63
2023/03/02 12:59:22;;;;;;;7.78;5.32;;;8.60;99.90;;;;;;5103446;28;20408;-63